URO303 KAFW-KCLE
Flight info
| Callsign | URO303 |
|---|---|
| Flight time | N/A |
| Altitude | 37000 |
| Route | KUSSO2 BSKAT LIT J131 PXV DRUGA ROKNN4 |
| Aircraft | A346/H-SDE2E3FGHIJ3J4J5M1RWXY/LB1D1 |
Departure
| Time | 2026-04-30 22:11 |
|---|---|
| Airport | Perot Field/Fort Worth Alliance Airport (KAFW) |
Arrival
| Time | N/A |
|---|---|
| Airport | Cleveland Hopkins International Airport (KCLE) |
| Time | Latitude | Longitude | Altitude | Speed | Heading |
|---|---|---|---|---|---|
| 2026-04-30 21:35 | 32.98394 | -97.32220 | 705 ft | 0 kts | 260° |
| 2026-04-30 21:57 | 32.98399 | -97.32200 | 690 ft | 4 kts | 245° |
| 2026-04-30 21:57 | 32.98411 | -97.32180 | 695 ft | 4 kts | 214° |
| 2026-04-30 21:57 | 32.98432 | -97.32170 | 696 ft | 4 kts | 185° |
| 2026-04-30 21:57 | 32.98452 | -97.32171 | 697 ft | 0 kts | 169° |
| 2026-04-30 21:58 | 32.98453 | -97.32171 | 697 ft | 0 kts | 169° |
| 2026-04-30 22:04 | 32.98452 | -97.32171 | 708 ft | 1 kts | 169° |
| 2026-04-30 22:04 | 32.98412 | -97.32162 | 696 ft | 0 kts | 169° |
| 2026-04-30 22:05 | 32.98403 | -97.32160 | 699 ft | 5 kts | 169° |
| 2026-04-30 22:05 | 32.98324 | -97.32142 | 696 ft | 15 kts | 169° |
| 2026-04-30 22:05 | 32.98319 | -97.32141 | 698 ft | 0 kts | 169° |
| 2026-04-30 22:06 | 32.98226 | -97.32123 | 694 ft | 19 kts | 171° |
| 2026-04-30 22:06 | 32.98070 | -97.32093 | 691 ft | 20 kts | 171° |
| 2026-04-30 22:07 | 32.97980 | -97.32052 | 691 ft | 10 kts | 107° |
| 2026-04-30 22:07 | 32.97962 | -97.31970 | 690 ft | 10 kts | 124° |
| 2026-04-30 22:07 | 32.97887 | -97.31940 | 691 ft | 14 kts | 172° |
| 2026-04-30 22:07 | 32.97780 | -97.31917 | 689 ft | 17 kts | 172° |
| 2026-04-30 22:08 | 32.97692 | -97.31898 | 687 ft | 9 kts | 169° |
| 2026-04-30 22:08 | 32.97655 | -97.31869 | 686 ft | 0 kts | 116° |
| 2026-04-30 22:08 | 32.97653 | -97.31862 | 685 ft | 5 kts | 107° |
| 2026-04-30 22:09 | 32.97662 | -97.31795 | 688 ft | 9 kts | 45° |
| 2026-04-30 22:09 | 32.97722 | -97.31779 | 690 ft | 9 kts | 355° |
| 2026-04-30 22:09 | 32.97732 | -97.31780 | 690 ft | 0 kts | 352° |
| 2026-04-30 22:10 | 32.97734 | -97.31780 | 690 ft | 4 kts | 352° |
| 2026-04-30 22:10 | 32.97986 | -97.31830 | 692 ft | 71 kts | 350° |
| 2026-04-30 22:10 | 32.98679 | -97.31970 | 717 ft | 129 kts | 351° |
| 2026-04-30 22:10 | 32.99735 | -97.32190 | 733 ft | 177 kts | 351° |
| 2026-04-30 22:11 | 33.02440 | -97.32795 | 1580 ft | 209 kts | 351° |
| 2026-04-30 22:11 | 33.03879 | -97.33104 | 2362 ft | 207 kts | 1° |
| 2026-04-30 22:11 | 33.05224 | -97.32702 | 3059 ft | 202 kts | 36° |
| 2026-04-30 22:12 | 33.06132 | -97.31404 | 3420 ft | 214 kts | 65° |
| 2026-04-30 22:12 | 33.06684 | -97.29678 | 3739 ft | 233 kts | 71° |
| 2026-04-30 22:12 | 33.07150 | -97.27746 | 4173 ft | 251 kts | 83° |
| 2026-04-30 22:12 | 33.06888 | -97.25675 | 4787 ft | 258 kts | 111° |
| 2026-04-30 22:13 | 33.06181 | -97.23691 | 5568 ft | 263 kts | 115° |
| 2026-04-30 22:13 | 33.05422 | -97.21660 | 6232 ft | 272 kts | 116° |
| 2026-04-30 22:13 | 33.04651 | -97.19562 | 6871 ft | 280 kts | 115° |
| 2026-04-30 22:13 | 33.03875 | -97.17392 | 7548 ft | 289 kts | 115° |
| 2026-04-30 22:14 | 33.03095 | -97.15146 | 8247 ft | 297 kts | 115° |
| 2026-04-30 22:14 | 33.02302 | -97.12831 | 8949 ft | 306 kts | 114° |
| 2026-04-30 22:14 | 33.01494 | -97.10447 | 9668 ft | 314 kts | 114° |
| 2026-04-30 22:14 | 33.00665 | -97.07994 | 10328 ft | 324 kts | 114° |
| 2026-04-30 22:15 | 32.99806 | -97.05442 | 10811 ft | 341 kts | 115° |
| 2026-04-30 22:15 | 32.98909 | -97.02738 | 11233 ft | 360 kts | 111° |
| 2026-04-30 22:15 | 32.98460 | -96.99709 | 11605 ft | 383 kts | 92° |
| 2026-04-30 22:15 | 32.98561 | -96.96467 | 12037 ft | 401 kts | 86° |
| 2026-04-30 22:16 | 32.98769 | -96.93140 | 12593 ft | 414 kts | 86° |
| 2026-04-30 22:16 | 32.98952 | -96.89684 | 13368 ft | 420 kts | 88° |
| 2026-04-30 22:17 | 32.99230 | -96.79005 | 15420 ft | 439 kts | 89° |
| 2026-04-30 22:17 | 32.99284 | -96.75327 | 16032 ft | 446 kts | 89° |
| 2026-04-30 22:17 | 32.99381 | -96.67814 | 17176 ft | 460 kts | 89° |
| 2026-04-30 22:18 | 32.99428 | -96.63975 | 17735 ft | 466 kts | 89° |
| 2026-04-30 22:18 | 32.99520 | -96.56143 | 18689 ft | 478 kts | 89° |
| 2026-04-30 22:19 | 32.99610 | -96.48114 | 19832 ft | 486 kts | 90° |
| 2026-04-30 22:19 | 32.99653 | -96.44071 | 20444 ft | 490 kts | 90° |
| 2026-04-30 22:19 | 32.99830 | -96.35886 | 21625 ft | 498 kts | 84° |
| 2026-04-30 22:20 | 33.00439 | -96.31823 | 22239 ft | 499 kts | 74° |
| 2026-04-30 22:20 | 33.02905 | -96.24077 | 23464 ft | 502 kts | 63° |
| 2026-04-30 22:20 | 33.04328 | -96.20247 | 23935 ft | 506 kts | 63° |
| 2026-04-30 22:21 | 33.05752 | -96.16389 | 24394 ft | 511 kts | 63° |
| 2026-04-30 22:21 | 33.07170 | -96.12482 | 24823 ft | 516 kts | 63° |
| 2026-04-30 22:21 | 33.08587 | -96.08520 | 25243 ft | 521 kts | 64° |
| 2026-04-30 22:21 | 33.10000 | -96.04525 | 25676 ft | 525 kts | 63° |
| 2026-04-30 22:22 | 33.11424 | -96.00484 | 26108 ft | 529 kts | 63° |
| 2026-04-30 22:22 | 33.12832 | -95.96481 | 26519 ft | 534 kts | 63° |
| 2026-04-30 22:22 | 33.14296 | -95.92315 | 26934 ft | 538 kts | 63° |
| 2026-04-30 22:22 | 33.15728 | -95.88232 | 27341 ft | 543 kts | 63° |
| 2026-04-30 22:23 | 33.17194 | -95.84052 | 27745 ft | 547 kts | 63° |
| 2026-04-30 22:23 | 33.18665 | -95.79845 | 28155 ft | 551 kts | 63° |
| 2026-04-30 22:23 | 33.20148 | -95.75594 | 28546 ft | 555 kts | 63° |
| 2026-04-30 22:23 | 33.21632 | -95.71331 | 29077 ft | 556 kts | 63° |
| 2026-04-30 22:24 | 33.23113 | -95.67061 | 29748 ft | 554 kts | 62° |
| 2026-04-30 22:24 | 33.24584 | -95.62810 | 30347 ft | 553 kts | 62° |
| 2026-04-30 22:24 | 33.26058 | -95.58561 | 30856 ft | 553 kts | 62° |
| 2026-04-30 22:24 | 33.27534 | -95.54305 | 31337 ft | 554 kts | 62° |
| 2026-04-30 22:25 | 33.29010 | -95.50045 | 31846 ft | 553 kts | 62° |
| 2026-04-30 22:25 | 33.30480 | -95.45794 | 32351 ft | 553 kts | 62° |
| 2026-04-30 22:25 | 33.31950 | -95.41534 | 32844 ft | 553 kts | 62° |
| 2026-04-30 22:25 | 33.33414 | -95.37283 | 33346 ft | 553 kts | 62° |
| 2026-04-30 22:26 | 33.36337 | -95.28777 | 34294 ft | 552 kts | 62° |
| 2026-04-30 22:26 | 33.37796 | -95.24522 | 34749 ft | 551 kts | 62° |
| 2026-04-30 22:26 | 33.39249 | -95.20278 | 35209 ft | 549 kts | 62° |
| 2026-04-30 22:27 | 33.40695 | -95.16050 | 35627 ft | 549 kts | 62° |
| 2026-04-30 22:27 | 33.42141 | -95.11821 | 35978 ft | 549 kts | 62° |
| 2026-04-30 22:27 | 33.45041 | -95.03323 | 36593 ft | 552 kts | 62° |
| 2026-04-30 22:28 | 33.47945 | -94.94786 | 37016 ft | 554 kts | 62° |
| 2026-04-30 22:28 | 33.49399 | -94.90497 | 37010 ft | 554 kts | 62° |
| 2026-04-30 22:29 | 33.55173 | -94.73428 | 37005 ft | 554 kts | 62° |
| 2026-04-30 22:31 | 33.65269 | -94.43352 | 37011 ft | 556 kts | 62° |
| 2026-04-30 22:32 | 33.72781 | -94.21969 | 37013 ft | 549 kts | 54° |
| 2026-04-30 22:33 | 33.82292 | -94.02159 | 37015 ft | 547 kts | 52° |
| 2026-04-30 22:35 | 33.91751 | -93.82295 | 37029 ft | 547 kts | 52° |
| 2026-04-30 22:36 | 34.01165 | -93.62403 | 37024 ft | 546 kts | 52° |
| 2026-04-30 22:37 | 34.09155 | -93.46950 | 37030 ft | 540 kts | 47° |
| 2026-04-30 22:38 | 34.17685 | -93.31642 | 37089 ft | 540 kts | 47° |
| 2026-04-30 22:39 | 34.23780 | -93.20598 | 37054 ft | 541 kts | 47° |
| 2026-04-30 22:40 | 34.36291 | -92.97810 | 37053 ft | 541 kts | 47° |
| 2026-04-30 22:41 | 34.46669 | -92.78797 | 37079 ft | 540 kts | 47° |
| 2026-04-30 22:43 | 34.59079 | -92.55931 | 37059 ft | 540 kts | 47° |
| 2026-04-30 22:44 | 34.67295 | -92.40710 | 37050 ft | 540 kts | 47° |
| 2026-04-30 22:45 | 34.79630 | -92.17784 | 37059 ft | 536 kts | 45° |
| 2026-04-30 22:47 | 34.93893 | -91.97426 | 37072 ft | 525 kts | 37° |
| 2026-04-30 22:48 | 35.03581 | -91.84082 | 37091 ft | 525 kts | 37° |
| 2026-04-30 22:49 | 35.18090 | -91.63956 | 37080 ft | 526 kts | 37° |
| 2026-04-30 22:51 | 35.32596 | -91.43718 | 37102 ft | 528 kts | 38° |
| 2026-04-30 22:52 | 35.39816 | -91.33595 | 37118 ft | 528 kts | 38° |
| 2026-04-30 22:53 | 35.49481 | -91.19999 | 37120 ft | 528 kts | 38° |
| 2026-04-30 22:53 | 35.56737 | -91.09765 | 37137 ft | 530 kts | 38° |
| 2026-04-30 22:55 | 35.68817 | -90.92640 | 37099 ft | 530 kts | 38° |
| 2026-04-30 22:56 | 35.77659 | -90.80054 | 37107 ft | 531 kts | 38° |
| 2026-04-30 22:57 | 35.89729 | -90.62799 | 37081 ft | 531 kts | 38° |
| 2026-04-30 22:58 | 35.99385 | -90.48932 | 37080 ft | 531 kts | 38° |
| 2026-04-30 22:59 | 36.13809 | -90.28105 | 37069 ft | 531 kts | 38° |